CGNUE CYXU-CYXU
Flight info
| Callsign | CGNUE |
|---|---|
| Flight time | 0h 3m |
| Altitude | 1900 |
| Route | VFR CIRCUITS |
| Aircraft | C172 |
Departure
| Time | 2026-05-06 22:53 |
|---|---|
| Airport | London International Airport (CYXU) |
Arrival
| Time | 2026-05-06 22:56 |
|---|---|
| Airport | London International Airport (CYXU) |
| Time | Latitude | Longitude | Altitude | Speed | Heading |
|---|---|---|---|---|---|
| 2026-05-06 22:51 | 43.03335 | -81.15092 | 904 ft | 0 kts | 54° |
| 2026-05-06 22:51 | 43.03347 | -81.15078 | 904 ft | 8 kts | 42° |
| 2026-05-06 22:51 | 43.03426 | -81.15044 | 905 ft | 23 kts | 321° |
| 2026-05-06 22:52 | 43.03682 | -81.15313 | 992 ft | 57 kts | 317° |
| 2026-05-06 22:52 | 43.04029 | -81.15658 | 1156 ft | 70 kts | 317° |
| 2026-05-06 22:52 | 43.04397 | -81.16146 | 1299 ft | 76 kts | 306° |
| 2026-05-06 22:52 | 43.04868 | -81.16472 | 1470 ft | 89 kts | 6° |
| 2026-05-06 22:53 | 43.05318 | -81.15868 | 1710 ft | 97 kts | 61° |
| 2026-05-06 22:53 | 43.05216 | -81.14994 | 1879 ft | 102 kts | 127° |
| 2026-05-06 22:53 | 43.04786 | -81.14186 | 2002 ft | 109 kts | 123° |
| 2026-05-06 22:53 | 43.04349 | -81.13392 | 1955 ft | 100 kts | 125° |
| 2026-05-06 22:54 | 43.03924 | -81.12657 | 1982 ft | 99 kts | 129° |
| 2026-05-06 22:54 | 43.03493 | -81.11958 | 2031 ft | 92 kts | 135° |
| 2026-05-06 22:54 | 43.02958 | -81.11553 | 2026 ft | 86 kts | 178° |
| 2026-05-06 22:54 | 43.02424 | -81.11795 | 1918 ft | 82 kts | 230° |
| 2026-05-06 22:55 | 43.02032 | -81.12309 | 1671 ft | 71 kts | 238° |
| 2026-05-06 22:55 | 43.01842 | -81.12838 | 1390 ft | 58 kts | 278° |
| 2026-05-06 22:55 | 43.01961 | -81.13298 | 1138 ft | 50 kts | 309° |
| 2026-05-06 22:55 | 43.02234 | -81.13631 | 996 ft | 53 kts | 330° |
| 2026-05-06 22:56 | 43.02512 | -81.13937 | 910 ft | 46 kts | 317° |
| 2026-05-06 22:56 | 43.02703 | -81.14169 | 904 ft | 47 kts | 319° |
| 2026-05-06 22:56 | 43.03023 | -81.14535 | 1067 ft | 64 kts | 316° |
| 2026-05-06 22:56 | 43.03376 | -81.14970 | 1267 ft | 73 kts | 309° |
| 2026-05-06 22:57 | 43.03719 | -81.15496 | 1503 ft | 76 kts | 310° |
| 2026-05-06 22:57 | 43.04063 | -81.16084 | 1733 ft | 82 kts | 307° |
| 2026-05-06 22:57 | 43.04424 | -81.16718 | 1891 ft | 89 kts | 318° |
| 2026-05-06 22:57 | 43.04962 | -81.17099 | 2022 ft | 90 kts | 359° |
| 2026-05-06 22:58 | 43.05469 | -81.16554 | 1910 ft | 100 kts | 54° |
| 2026-05-06 22:58 | 43.05796 | -81.15717 | 1818 ft | 102 kts | 60° |
| 2026-05-06 22:58 | 43.05629 | -81.14798 | 1850 ft | 106 kts | 136° |
| 2026-05-06 22:58 | 43.05055 | -81.14201 | 1850 ft | 104 kts | 143° |
| 2026-05-06 22:59 | 43.04514 | -81.13547 | 1807 ft | 103 kts | 132° |
| 2026-05-06 22:59 | 43.04025 | -81.12819 | 1771 ft | 104 kts | 130° |
| 2026-05-06 22:59 | 43.03519 | -81.12126 | 1761 ft | 105 kts | 139° |
| 2026-05-06 22:59 | 43.02939 | -81.11490 | 1718 ft | 107 kts | 144° |
| 2026-05-06 23:00 | 43.02361 | -81.11052 | 1683 ft | 88 kts | 182° |
| 2026-05-06 23:00 | 43.01981 | -81.11168 | 1549 ft | 83 kts | 218° |
| 2026-05-06 23:00 | 43.01515 | -81.11919 | 1333 ft | 72 kts | 251° |
| 2026-05-06 23:00 | 43.01492 | -81.12497 | 1176 ft | 57 kts | 289° |
| 2026-05-06 23:01 | 43.01714 | -81.12943 | 1138 ft | 58 kts | 309° |
| 2026-05-06 23:01 | 43.01920 | -81.13208 | 1078 ft | 61 kts | 315° |
| 2026-05-06 23:01 | 43.02208 | -81.13566 | 1003 ft | 54 kts | 322° |
| 2026-05-06 23:01 | 43.02485 | -81.13898 | 912 ft | 53 kts | 323° |
| 2026-05-06 23:02 | 43.02700 | -81.14159 | 904 ft | 29 kts | 318° |
| 2026-05-06 23:02 | 43.02753 | -81.14224 | 904 ft | 0 kts | 316° |
| 2026-05-06 23:03 | 43.02778 | -81.14252 | 905 ft | 23 kts | 310° |
| 2026-05-06 23:04 | 43.03041 | -81.14566 | 931 ft | 70 kts | 318° |
| 2026-05-06 23:04 | 43.03433 | -81.15019 | 1169 ft | 69 kts | 315° |
| 2026-05-06 23:04 | 43.03823 | -81.15408 | 1414 ft | 72 kts | 323° |
| 2026-05-06 23:04 | 43.04232 | -81.15754 | 1720 ft | 68 kts | 335° |
| 2026-05-06 23:05 | 43.04693 | -81.16071 | 1916 ft | 79 kts | 340° |
| 2026-05-06 23:05 | 43.05241 | -81.15915 | 1963 ft | 90 kts | 39° |
| 2026-05-06 23:05 | 43.05548 | -81.15187 | 2007 ft | 85 kts | 58° |
| 2026-05-06 23:05 | 43.05740 | -81.14371 | 2069 ft | 87 kts | 73° |
| 2026-05-06 23:06 | 43.05495 | -81.13591 | 2077 ft | 103 kts | 144° |
| 2026-05-06 23:06 | 43.04852 | -81.13115 | 2064 ft | 106 kts | 153° |
| 2026-05-06 23:06 | 43.04213 | -81.12598 | 2002 ft | 110 kts | 147° |
| 2026-05-06 23:06 | 43.03562 | -81.12029 | 1941 ft | 112 kts | 147° |
| 2026-05-06 23:07 | 43.02125 | -81.10547 | 1810 ft | 119 kts | 141° |
| 2026-05-06 23:07 | 43.01477 | -81.09877 | 1779 ft | 116 kts | 149° |
| 2026-05-06 23:07 | 43.00744 | -81.09733 | 1609 ft | 103 kts | 207° |
| 2026-05-06 23:08 | 43.00229 | -81.10228 | 1602 ft | 88 kts | 249° |
| 2026-05-06 23:08 | 43.00313 | -81.11062 | 1634 ft | 91 kts | 299° |
| 2026-05-06 23:08 | 43.00539 | -81.11546 | 1593 ft | 86 kts | 315° |
| 2026-05-06 23:08 | 43.00910 | -81.12015 | 1470 ft | 65 kts | 320° |
| 2026-05-06 23:09 | 43.01338 | -81.12535 | 1202 ft | 55 kts | 311° |
| 2026-05-06 23:09 | 43.01616 | -81.12872 | 1147 ft | 56 kts | 316° |
| 2026-05-06 23:09 | 43.01938 | -81.13251 | 1120 ft | 65 kts | 317° |
| 2026-05-06 23:09 | 43.02253 | -81.13619 | 1046 ft | 53 kts | 314° |
| 2026-05-06 23:10 | 43.02531 | -81.13961 | 950 ft | 54 kts | 314° |
| 2026-05-06 23:10 | 43.02794 | -81.14275 | 905 ft | 39 kts | 318° |
| 2026-05-06 23:10 | 43.02906 | -81.14414 | 904 ft | 28 kts | 313° |
| 2026-05-06 23:10 | 43.02962 | -81.14536 | 903 ft | 11 kts | 250° |
| 2026-05-06 23:11 | 43.02912 | -81.14620 | 903 ft | 8 kts | 228° |
| 2026-05-06 23:11 | 43.02894 | -81.14651 | 903 ft | 0 kts | 230° |
| 2026-05-06 23:11 | 43.02925 | -81.14751 | 903 ft | 17 kts | 314° |
| 2026-05-06 23:11 | 43.03049 | -81.14904 | 903 ft | 27 kts | 317° |
| 2026-05-06 23:12 | 43.03144 | -81.15020 | 903 ft | 27 kts | 317° |
| 2026-05-06 23:12 | 43.03257 | -81.15151 | 903 ft | 15 kts | 314° |
| 2026-05-06 23:12 | 43.03228 | -81.15266 | 903 ft | 12 kts | 260° |
| 2026-05-06 23:12 | 43.03227 | -81.15292 | 903 ft | 0 kts | 275° |